Warning: Javascript must be enabled to use all the features on this page!


Page Loading - Please Wait...

* We've detected you're using a mobile device. Find our Next Generation Station Page here.
Click to hideNews Bulletins
  • Have your voice heard. Have a few minutes? We're surveying users about their experience with Water Data for the Nation (WDFN). Please take a few minutes to complete our online survey.
  • See the Water Data for the Nation Blog for the latest news and updates.

Peak Streamflow for the Nation

USGS 08329900 NORTH FLOODWAY CHANNEL NEAR ALAMEDA, NM

Bernalillo County, New Mexico
Hydrologic Unit Code 13020203
Latitude  35°11'53", Longitude 106°35'59" NAD83
Drainage area 87.9  square miles
Gage datum 5,015 feet above NGVD29
Output formats
Table
Graph
Tab-separated file
peakfq (watstore) format
Reselect output format
Water
Year
Date Gage
Height
(feet)
Stream-
flow
(cfs)
1968 1968-08-26 2.20 666
1969 1969-05-06 3.04 1,200
1970 1970-08-10 5.25 3,310
1971 1971-07-26 6.30 4,650
1972 1971-10-25 4.25 2,230
1973 1973-09-10 5.50 3,610
1974 1974-09-20 4.50 2,480
1975 1975-08-12 3.85 1,860
1976 1976-07-12 4.00 2,000
1977 1977-08-18 5.12 3,160
1978 1977-10-06 4.98 3,000
1979 1979-08-16 5.20 3,250
1980 1980-08-14 10.40 12,300
1981 1981-08-20 4.10 2,090
1982 1982-07-31 8.00 7,410
1983 1983-06-24 3.50 1,560
1984 1984-08-22 7.60 6,700
1985 1984-10-15 4.46 2,440
1986 1986-08-10 4.30 2,280
1987 1987-07-24 8.05 7,500
1988 1988-07-09 10.20 11,900
1989 1989-07-25 5.00 3,020
1990 1990-07-14 6.93 5,580
1991 1991-07-21 8.50 8,340
1992 1992-08-11 6.19 4,500
1993 1993-08-13 5.57 3,690
1994 1994-05-11 6.33 4,690
1995 1995-09-07 6.14 4,430
1996 1996-08-26 8.20 7,780
1997 1997-07-28 8.30 7,960
1998 1998-07-25 6.80 5,380
1999 1999-06-16 6.40 4,790
2000 2000-08-12 5.00 3,020
2001 2001-08-14 5.70 3,860C
2002 2002-08-04 5.39 3,470C
2003 2003-03-21 6.30 4,650C
2004 2004-07-23 7.00 5,700C
2006 2006-08-23 8.50 8,340C
2007 2007-09-20 7.10 5,860C
2008 2008-08-05 6.80 5,380C
2009 2009-09-17 4.76 2,760C
2010 2010-09-22 6.79 5,370C
2011 2011-07-24 4.00 2,000C
2012 2012-07-24 6.20 4,510C
2013 2013-07-26 8.50 8,340C
2014 2014-08-02 6.21 4,530C
2015 2015-09-22 5.81 4,000C
2016 2016-07-30 6.98 5,660C
2017 2017-08-11 5.74 3,910C
?
  Peak Streamflow Qualification Codes.